Humidity-temperature Sensor

Selected Measurement Type: Air Temperature

 
Air Temperature [°C]     6 entries per hour
Showing data from 6/17/2022 (00:00:00 Z) to 6/10/2022 (00:01:00 Z)
Previous Next [ Day | 3-Days | 7-Days ]
First Last
Prev [ Day | 3-Days | 7-Days ] Next
First Last

Start Time:     :
End Time:     :     
Time (in GMT) :00 :50 :40 :30 :20 :10
Previous Next [ Day | 3-Days | 7-Days ]
First Last
Prev [ Day | 3-Days | 7-Days ] Next
First Last


123 => good data
MM => data is determined as missing
-- => data not received/configured
Back to Top Back to Top
6/17/2022 00:00 to 23:10 25.56 25.50 25.54 25.59 25.50 25.46
6/16/2022 23:00 to 22:10 25.61 25.40 25.47 25.35 25.43 25.47
6/16/2022 22:00 to 21:10 25.49 25.40 25.52 25.33 25.43 25.54
6/16/2022 21:00 to 20:10 25.42 25.21 25.42 25.35 25.33 25.56
6/16/2022 20:00 to 19:10 25.46 25.40 25.36 25.46 25.48 25.42
6/16/2022 19:00 to 18:10 25.44 25.39 25.44 25.46 25.35 25.42
6/16/2022 18:00 to 17:10 25.40 25.50 25.53 25.39 25.46 25.40
6/16/2022 17:00 to 16:10 25.50 25.55 25.59 25.55 25.56 25.75
6/16/2022 16:00 to 15:10 25.59 25.79 25.48 25.28 25.33 25.35
6/16/2022 15:00 to 14:10 25.34 25.13 25.17 24.94 25.16 25.08
6/16/2022 14:00 to 13:10 25.00 25.08 25.11 25.04 25.14 25.10
6/16/2022 13:00 to 12:10 25.13 25.09 25.04 25.16 25.16 25.01
6/16/2022 12:00 to 11:10 25.14 25.17 24.94 25.09 25.02 24.92
6/16/2022 11:00 to 10:10 25.24 25.02 25.04 25.16 25.22 25.05
6/16/2022 10:00 to 9:10 25.01 25.09 25.07 25.02 25.20 25.05
6/16/2022 09:00 to 8:10 25.31 25.26 25.15 25.06 25.30 25.18
6/16/2022 08:00 to 7:10 25.14 25.12 25.12 25.24 25.21 25.14
6/16/2022 07:00 to 6:10 25.22 25.17 25.15 25.18 25.25 25.29
6/16/2022 06:00 to 5:10 25.15 25.17 25.22 25.12 25.24 25.22
6/16/2022 05:00 to 4:10 25.14 25.23 25.05 25.19 25.17 25.19
6/16/2022 04:00 to 3:10 25.19 25.18 25.27 25.34 25.22 25.09
6/16/2022 03:00 to 2:10 25.21 25.12 25.15 25.29 25.27 25.35
6/16/2022 02:00 to 1:10 25.51 25.52 25.40 25.47 25.43 25.46
6/16/2022 01:00 to 0:10 25.38 25.36 25.38 25.36 25.54 25.45
6/16/2022 00:00 to 23:10 25.46 25.28 25.34 25.32 25.32 25.32
6/15/2022 23:00 to 22:10 25.29 25.24 25.44 25.34 25.29 25.30
6/15/2022 22:00 to 21:10 25.27 25.34 25.39 25.34 25.30 25.35
6/15/2022 21:00 to 20:10 25.38 25.28 25.42 25.41 25.30 25.39
6/15/2022 20:00 to 19:10 25.21 25.36 25.26 25.45 25.35 25.29
6/15/2022 19:00 to 18:10 25.41 25.33 25.31 25.55 25.36 25.45
6/15/2022 18:00 to 17:10 25.34 25.43 25.24 25.43 25.64 25.41
6/15/2022 17:00 to 16:10 25.32 25.44 25.34 25.28 25.41 25.40
6/15/2022 16:00 to 15:10 25.24 25.47 25.34 25.33 25.34 25.34
6/15/2022 15:00 to 14:10 25.28 25.13 25.17 24.84 24.62 24.81
6/15/2022 14:00 to 13:10 24.95 24.83 24.87 24.81 24.84 24.97
6/15/2022 13:00 to 12:10 24.94 24.86 24.66 24.82 24.81 24.87
6/15/2022 12:00 to 11:10 24.77 24.81 24.94 24.88 24.83 24.79
6/15/2022 11:00 to 10:10 24.92 24.99 24.81 25.07 24.91 24.91
6/15/2022 10:00 to 9:10 25.07 25.07 25.09 25.13 25.12 25.09
6/15/2022 09:00 to 8:10 25.00 25.10 25.08 25.12 25.04 25.11
6/15/2022 08:00 to 7:10 25.16 25.24 25.18 25.27 25.19 25.19
6/15/2022 07:00 to 6:10 25.18 25.19 25.31 25.24 25.19 25.18
6/15/2022 06:00 to 5:10 25.27 25.19 25.26 25.30 25.18 25.17
6/15/2022 05:00 to 4:10 25.28 25.22 25.30 25.24 25.38 25.36
6/15/2022 04:00 to 3:10 25.28 25.35 25.24 25.34 25.32 25.25
6/15/2022 03:00 to 2:10 25.42 25.39 25.34 25.56 25.41 25.46
6/15/2022 02:00 to 1:10 25.53 25.48 25.54 25.43 25.46 25.60
6/15/2022 01:00 to 0:10 25.50 25.43 25.46 25.56 25.37 25.53
6/15/2022 00:00 to 23:10 25.56 25.49 25.48 25.43 25.44 25.39
6/14/2022 23:00 to 22:10 25.44 25.51 25.47 25.37 25.50 25.49
6/14/2022 22:00 to 21:10 25.55 25.45 25.44 25.56 25.44 25.52
6/14/2022 21:00 to 20:10 25.35 25.51 25.29 25.48 25.52 25.44
6/14/2022 20:00 to 19:10 25.39 25.35 25.46 25.49 25.59 25.48
6/14/2022 19:00 to 18:10 25.43 25.53 25.46 25.46 25.44 25.64
6/14/2022 18:00 to 17:10 25.58 25.46 25.44 25.54 25.47 25.47
6/14/2022 17:00 to 16:10 25.62 25.56 25.66 25.38 25.73 25.45
6/14/2022 16:00 to 15:10 25.33 25.63 25.48 25.66 25.41 25.36
6/14/2022 15:00 to 14:10 25.22 25.01 25.20 25.18 25.10 25.20
6/14/2022 14:00 to 13:10 25.16 25.05 25.16 25.03 25.10 25.09
6/14/2022 13:00 to 12:10 24.95 25.12 25.17 25.25 25.04 25.09
6/14/2022 12:00 to 11:10 24.97 25.14 25.02 25.22 24.87 25.12
6/14/2022 11:00 to 10:10 25.30 25.21 25.06 25.18 25.33 25.36
6/14/2022 10:00 to 9:10 25.11 25.07 25.34 25.31 25.26 25.19
6/14/2022 09:00 to 8:10 25.22 25.19 25.35 25.31 25.29 25.12
6/14/2022 08:00 to 7:10 25.32 25.37 25.44 25.47 25.46 25.52
6/14/2022 07:00 to 6:10 25.41 25.39 25.34 25.43 25.56 25.38
6/14/2022 06:00 to 5:10 25.45 25.54 25.34 25.42 25.43 25.60
6/14/2022 05:00 to 4:10 25.49 25.57 25.32 25.55 25.46 25.53
6/14/2022 04:00 to 3:10 25.63 25.47 25.72 25.48 25.47 25.45
6/14/2022 03:00 to 2:10 25.66 25.50 25.65 25.58 25.54 25.55
6/14/2022 02:00 to 1:10 25.62 25.65 25.45 25.64 25.66 25.58
6/14/2022 01:00 to 0:10 25.58 25.81 25.55 25.70 25.58 25.55
6/14/2022 00:00 to 23:10 25.51 25.56 25.69 25.65 25.59 25.53
6/13/2022 23:00 to 22:10 25.72 25.65 25.57 25.48 25.54 25.52
6/13/2022 22:00 to 21:10 25.43 25.58 25.70 25.62 25.46 25.53
6/13/2022 21:00 to 20:10 25.66 25.61 25.54 25.60 25.52 25.65
6/13/2022 20:00 to 19:10 25.53 25.62 25.57 25.60 25.64 25.65
6/13/2022 19:00 to 18:10 25.44 25.63 25.53 25.68 25.51 25.49
6/13/2022 18:00 to 17:10 25.55 25.76 25.57 25.70 25.56 25.55
6/13/2022 17:00 to 16:10 25.80 25.67 25.66 25.62 25.67 25.60
6/13/2022 16:00 to 15:10 25.61 25.63 25.45 25.45 25.45 25.35
6/13/2022 15:00 to 14:10 25.47 25.40 25.28 25.29 25.12 25.33
6/13/2022 14:00 to 13:10 25.13 25.31 25.32 25.29 25.23 25.23
6/13/2022 13:00 to 12:10 25.16 25.22 25.34 25.30 25.31 25.33
6/13/2022 12:00 to 11:10 25.26 25.23 25.10 25.27 25.30 25.28
6/13/2022 11:00 to 10:10 25.41 25.20 25.27 25.29 25.24 25.31
6/13/2022 10:00 to 9:10 25.37 25.31 25.26 25.36 25.32 25.28
6/13/2022 09:00 to 8:10 25.38 25.43 25.36 25.31 25.35 25.44
6/13/2022 08:00 to 7:10 25.54 25.53 25.57 25.45 25.56 25.62
6/13/2022 07:00 to 6:10 25.41 25.47 25.55 25.68 25.64 25.51
6/13/2022 06:00 to 5:10 25.63 25.59 25.51 25.57 25.77 25.38
6/13/2022 05:00 to 4:10 25.60 25.56 25.60 25.51 25.58 25.58
6/13/2022 04:00 to 3:10 25.70 25.52 25.49 25.53 25.60 25.61
6/13/2022 03:00 to 2:10 25.64 25.64 25.61 25.55 25.63 25.60
6/13/2022 02:00 to 1:10 25.65 25.67 25.56 25.86 25.59 25.57
6/13/2022 01:00 to 0:10 25.59 25.57 25.66 25.70 25.59 25.63
6/13/2022 00:00 to 23:10 25.53 25.55 25.64 25.56 25.55 25.59
6/12/2022 23:00 to 22:10 25.42 25.68 25.69 25.75 25.53 25.54
6/12/2022 22:00 to 21:10 25.48 25.55 25.57 25.56 25.61 25.64
6/12/2022 21:00 to 20:10 25.58 25.78 25.54 25.62 25.58 25.62
6/12/2022 20:00 to 19:10 25.68 25.70 25.60 25.57 25.63 25.62
6/12/2022 19:00 to 18:10 25.72 25.75 25.65 25.67 25.76 25.72
6/12/2022 18:00 to 17:10 25.71 25.78 25.67 25.76 25.89 25.78
6/12/2022 17:00 to 16:10 25.62 25.85 25.72 25.76 25.88 25.64
6/12/2022 16:00 to 15:10 25.76 25.82 25.69 25.49 25.63 25.72
6/12/2022 15:00 to 14:10 25.68 25.49 25.54 25.50 25.46 25.34
6/12/2022 14:00 to 13:10 25.39 25.47 25.42 25.32 25.40 25.35
6/12/2022 13:00 to 12:10 25.30 25.30 25.45 25.40 25.29 25.38
6/12/2022 12:00 to 11:10 25.13 25.44 25.37 25.31 25.48 25.24
6/12/2022 11:00 to 10:10 25.39 25.35 25.42 25.30 25.30 25.37
6/12/2022 10:00 to 9:10 25.34 25.51 25.47 25.33 25.38 25.36
6/12/2022 09:00 to 8:10 25.48 25.48 25.55 25.50 25.47 25.45
6/12/2022 08:00 to 7:10 25.47 25.57 25.63 25.48 25.61 25.52
6/12/2022 07:00 to 6:10 25.61 25.70 25.57 25.61 25.69 25.81
6/12/2022 06:00 to 5:10 25.73 25.62 25.74 25.69 25.77 25.66
6/12/2022 05:00 to 4:10 25.71 25.68 25.58 25.66 25.77 25.66
6/12/2022 04:00 to 3:10 25.86 25.69 25.66 25.60 25.72 25.69
6/12/2022 03:00 to 2:10 25.69 25.61 25.63 25.79 25.63 25.68
6/12/2022 02:00 to 1:10 25.70 25.78 25.68 25.76 25.75 25.65
6/12/2022 01:00 to 0:10 25.74 25.77 25.69 25.64 25.61 25.66
6/12/2022 00:00 to 23:10 25.81 25.69 25.72 25.78 25.81 25.68
6/11/2022 23:00 to 22:10 25.57 25.59 25.62 25.71 25.51 25.66
6/11/2022 22:00 to 21:10 25.56 25.64 25.65 25.64 25.58 25.74
6/11/2022 21:00 to 20:10 25.70 25.74 25.68 25.58 25.53 25.71
6/11/2022 20:00 to 19:10 25.63 25.61 25.61 25.68 25.55 25.66
6/11/2022 19:00 to 18:10 25.64 25.52 25.60 25.57 25.58 25.54
6/11/2022 18:00 to 17:10 25.52 25.52 25.50 25.61 25.71 25.61
6/11/2022 17:00 to 16:10 25.51 25.66 25.46 25.56 25.66 25.50
6/11/2022 16:00 to 15:10 25.58 25.42 25.53 25.55 25.40 25.34
6/11/2022 15:00 to 14:10 25.45 25.55 25.47 25.28 25.40 25.27
6/11/2022 14:00 to 13:10 25.38 25.29 25.34 25.40 25.25 25.44
6/11/2022 13:00 to 12:10 25.16 25.34 25.26 25.31 25.31 25.19
6/11/2022 12:00 to 11:10 25.29 25.15 25.16 25.32 25.32 25.28
6/11/2022 11:00 to 10:10 25.24 25.26 25.34 25.34 25.32 25.36
6/11/2022 10:00 to 9:10 25.34 25.44 25.43 25.41 25.42 25.47
6/11/2022 09:00 to 8:10 25.55 25.68 25.48 25.54 25.64 25.47
6/11/2022 08:00 to 7:10 25.68 25.58 25.63 25.61 25.70 25.58
6/11/2022 07:00 to 6:10 25.65 25.61 25.61 25.62 25.71 25.59
6/11/2022 06:00 to 5:10 25.68 25.66 25.68 25.68 25.62 25.77
6/11/2022 05:00 to 4:10 25.75 25.69 25.75 25.80 25.82 25.78
6/11/2022 04:00 to 3:10 25.80 25.72 25.63 25.72 25.83 25.63
6/11/2022 03:00 to 2:10 25.76 25.77 25.83 25.69 25.71 25.87
6/11/2022 02:00 to 1:10 25.85 25.85 25.69 25.85 26.04 25.88
6/11/2022 01:00 to 0:10 25.92 25.88 25.85 25.85 25.78 25.87
6/11/2022 00:00 to 23:10 25.99 26.04 25.93 25.93 25.94 25.77
6/10/2022 23:00 to 22:10 25.77 25.81 25.69 25.89 25.76 25.95
6/10/2022 22:00 to 21:10 25.82 25.76 25.97 25.88 25.65 25.70
6/10/2022 21:00 to 20:10 25.81 25.75 25.71 25.86 25.81 25.78
6/10/2022 20:00 to 19:10 25.66 25.75 25.77 25.71 25.70 25.63
6/10/2022 19:00 to 18:10 25.72 25.64 25.60 25.60 25.74 25.71
6/10/2022 18:00 to 17:10 25.82 25.92 26.00 25.80 25.85 25.85
6/10/2022 17:00 to 16:10 25.84 25.94 25.73 25.73 25.74 25.65
6/10/2022 16:00 to 15:10 25.67 25.69 25.67 25.71 25.79 25.77
6/10/2022 15:00 to 14:10 25.76 25.72 25.65 25.69 25.71 25.60
6/10/2022 14:00 to 13:10 25.61 25.48 25.61 25.58 25.78 25.55
6/10/2022 13:00 to 12:10 25.52 25.60 25.55 25.61 25.46 25.46
6/10/2022 12:00 to 11:10 25.63 25.66 25.59 25.37 25.57 25.40
6/10/2022 11:00 to 10:10 25.54 25.30 25.43 25.56 25.46 25.45
6/10/2022 10:00 to 9:10 25.52 25.55 25.52 25.53 25.46 25.59
6/10/2022 09:00 to 8:10 25.50 25.62 25.66 25.62 25.78 25.61
6/10/2022 08:00 to 7:10 25.84 25.65 25.66 25.64 25.60 25.80
6/10/2022 07:00 to 6:10 25.73 25.69 25.71 25.70 25.76 25.84
6/10/2022 06:00 to 5:10 25.85 25.68 25.83 25.77 25.82 25.66
6/10/2022 05:00 to 4:10 25.69 25.82 25.73 25.74 25.79 25.83
6/10/2022 04:00 to 3:10 25.88 25.87 25.75 25.85 25.73 25.83
6/10/2022 03:00 to 2:10 25.73 25.78 25.80 25.84 25.65 25.83
6/10/2022 02:00 to 1:10 25.80 25.82 26.00 25.88 25.81 25.99
6/10/2022 01:00 to 0:10 25.72 25.47 25.78 26.04 25.84 25.85